sensor_id;sensor_type;location;lat;lon;timestamp;pressure;altitude;pressure_sealevel;temperature;humidity
66398;BME280;54877;51.504;3.894;2023-03-03T00:00:47;102566.19;;;6.80;65.53
66398;BME280;54877;51.504;3.894;2023-03-03T00:03:22;102569.78;;;6.73;65.92
66398;BME280;54877;51.504;3.894;2023-03-03T00:05:49;102574.16;;;6.73;66.09
66398;BME280;54877;51.504;3.894;2023-03-03T00:08:14;102573.31;;;6.66;66.06
66398;BME280;54877;51.504;3.894;2023-03-03T00:10:40;102568.06;;;6.60;66.33
66398;BME280;54877;51.504;3.894;2023-03-03T00:13:11;102568.16;;;6.48;66.86
66398;BME280;54877;51.504;3.894;2023-03-03T00:15:39;102582.22;;;6.38;66.90
66398;BME280;54877;51.504;3.894;2023-03-03T00:18:09;102574.31;;;6.41;66.94
66398;BME280;54877;51.504;3.894;2023-03-03T00:20:46;102578.72;;;6.39;66.94
66398;BME280;54877;51.504;3.894;2023-03-03T00:23:19;102576.09;;;6.39;66.79
66398;BME280;54877;51.504;3.894;2023-03-03T00:25:45;102566.53;;;6.23;66.96
66398;BME280;54877;51.504;3.894;2023-03-03T00:28:27;102576.13;;;6.33;66.64
66398;BME280;54877;51.504;3.894;2023-03-03T00:31:10;102576.13;;;6.34;66.74
66398;BME280;54877;51.504;3.894;2023-03-03T00:33:50;102580.50;;;6.34;66.49
66398;BME280;54877;51.504;3.894;2023-03-03T00:41:54;102577.00;;;6.35;65.90
66398;BME280;54877;51.504;3.894;2023-03-03T00:47:02;102589.25;;;6.36;65.94
66398;BME280;54877;51.504;3.894;2023-03-03T00:49:46;102585.81;;;6.26;65.85
66398;BME280;54877;51.504;3.894;2023-03-03T00:52:12;102593.72;;;6.19;66.21
66398;BME280;54877;51.504;3.894;2023-03-03T00:54:40;102592.81;;;6.23;66.13
66398;BME280;54877;51.504;3.894;2023-03-03T00:57:05;102592.84;;;6.20;66.28
66398;BME280;54877;51.504;3.894;2023-03-03T00:59:31;102598.16;;;6.05;66.54
66398;BME280;54877;51.504;3.894;2023-03-03T01:01:56;102588.50;;;6.02;66.44
66398;BME280;54877;51.504;3.894;2023-03-03T01:04:22;102586.78;;;5.95;66.81
66398;BME280;54877;51.504;3.894;2023-03-03T01:06:47;102592.00;;;6.09;66.57
66398;BME280;54877;51.504;3.894;2023-03-03T01:09:13;102584.09;;;6.13;66.47
66398;BME280;54877;51.504;3.894;2023-03-03T01:11:39;102582.34;;;6.08;66.16
66398;BME280;54877;51.504;3.894;2023-03-03T01:14:04;102581.47;;;6.12;66.25
66398;BME280;54877;51.504;3.894;2023-03-03T01:16:30;102591.16;;;6.01;66.54
66398;BME280;54877;51.504;3.894;2023-03-03T01:18:55;102592.88;;;6.11;66.34
66398;BME280;54877;51.504;3.894;2023-03-03T01:21:20;102598.13;;;6.08;66.34
66398;BME280;54877;51.504;3.894;2023-03-03T01:23:46;102598.16;;;6.05;66.40
66398;BME280;54877;51.504;3.894;2023-03-03T01:26:11;102588.50;;;6.10;66.03
66398;BME280;54877;51.504;3.894;2023-03-03T01:28:36;102593.75;;;6.10;66.12
66398;BME280;54877;51.504;3.894;2023-03-03T01:31:03;102595.50;;;6.11;66.10
66398;BME280;54877;51.504;3.894;2023-03-03T01:33:29;102591.13;;;6.10;65.95
66398;BME280;54877;51.504;3.894;2023-03-03T01:35:55;102597.25;;;6.15;65.93
66398;BME280;54877;51.504;3.894;2023-03-03T01:38:21;102584.97;;;6.08;66.32
66398;BME280;54877;51.504;3.894;2023-03-03T01:40:53;102591.13;;;6.10;66.06
66398;BME280;54877;51.504;3.894;2023-03-03T01:43:19;102592.91;;;6.02;66.62
66398;BME280;54877;51.504;3.894;2023-03-03T01:48:15;102592.91;;;5.99;66.61
66398;BME280;54877;51.504;3.894;2023-03-03T01:50:56;102592.94;;;5.93;66.71
66398;BME280;54877;51.504;3.894;2023-03-03T01:56:12;102591.16;;;5.91;67.14
66398;BME280;54877;51.504;3.894;2023-03-03T01:58:39;102589.41;;;5.84;67.33
66398;BME280;54877;51.504;3.894;2023-03-03T02:01:11;102585.94;;;5.85;67.42
66398;BME280;54877;51.504;3.894;2023-03-03T02:03:40;102587.66;;;5.80;67.49
66398;BME280;54877;51.504;3.894;2023-03-03T02:06:18;102589.41;;;5.81;67.83
66398;BME280;54877;51.504;3.894;2023-03-03T02:09:00;102584.16;;;5.81;67.82
66398;BME280;54877;51.504;3.894;2023-03-03T02:11:32;102579.81;;;5.76;67.79
66398;BME280;54877;51.504;3.894;2023-03-03T02:14:00;102586.78;;;5.80;67.94
66398;BME280;54877;51.504;3.894;2023-03-03T02:16:26;102579.78;;;5.83;67.74
66398;BME280;54877;51.504;3.894;2023-03-03T02:18:51;102574.53;;;5.80;67.87
66398;BME280;54877;51.504;3.894;2023-03-03T02:21:21;102572.78;;;5.82;68.04
66398;BME280;54877;51.504;3.894;2023-03-03T02:26:35;102581.53;;;5.83;68.06
66398;BME280;54877;51.504;3.894;2023-03-03T02:29:05;102587.66;;;5.83;68.07
66398;BME280;54877;51.504;3.894;2023-03-03T02:31:32;102580.66;;;5.85;68.02
66398;BME280;54877;51.504;3.894;2023-03-03T02:33:58;102585.94;;;5.82;68.12
66398;BME280;54877;51.504;3.894;2023-03-03T02:36:25;102585.94;;;5.79;68.18
66398;BME280;54877;51.504;3.894;2023-03-03T02:44:27;102585.94;;;5.73;67.96
66398;BME280;54877;51.504;3.894;2023-03-03T02:46:54;102594.69;;;5.69;68.40
66398;BME280;54877;51.504;3.894;2023-03-03T02:49:28;102577.19;;;5.65;68.37
66398;BME280;54877;51.504;3.894;2023-03-03T02:51:56;102581.56;;;5.65;68.80
66398;BME280;54877;51.504;3.894;2023-03-03T02:54:24;102572.81;;;5.73;68.30
66398;BME280;54877;51.504;3.894;2023-03-03T02:56:51;102580.69;;;5.76;68.06
66398;BME280;54877;51.504;3.894;2023-03-03T02:59:16;102567.53;;;5.76;68.05
66398;BME280;54877;51.504;3.894;2023-03-03T03:01:43;102579.78;;;5.79;67.95
66398;BME280;54877;51.504;3.894;2023-03-03T03:04:10;102580.69;;;5.79;67.72
66398;BME280;54877;51.504;3.894;2023-03-03T03:06:38;102587.69;;;5.79;67.90
66398;BME280;54877;51.504;3.894;2023-03-03T03:09:04;102588.53;;;5.75;67.94
66398;BME280;54877;51.504;3.894;2023-03-03T03:11:30;102581.53;;;5.78;67.93
66398;BME280;54877;51.504;3.894;2023-03-03T03:13:56;102586.81;;;5.78;67.87
66398;BME280;54877;51.504;3.894;2023-03-03T03:16:21;102578.91;;;5.78;68.03
66398;BME280;54877;51.504;3.894;2023-03-03T03:18:47;102579.78;;;5.79;67.86
66398;BME280;54877;51.504;3.894;2023-03-03T03:21:14;102578.91;;;5.81;67.68
66398;BME280;54877;51.504;3.894;2023-03-03T03:23:40;102574.53;;;5.79;67.88
66398;BME280;54877;51.504;3.894;2023-03-03T03:26:06;102581.53;;;5.81;67.42
66398;BME280;54877;51.504;3.894;2023-03-03T03:28:32;102578.03;;;5.78;67.57
66398;BME280;54877;51.504;3.894;2023-03-03T03:30:58;102581.53;;;5.83;67.36
66398;BME280;54877;51.504;3.894;2023-03-03T03:33:23;102585.06;;;5.86;67.38
66398;BME280;54877;51.504;3.894;2023-03-03T03:35:49;102593.81;;;5.91;67.05
66398;BME280;54877;51.504;3.894;2023-03-03T03:38:14;102587.69;;;5.93;66.81
66398;BME280;54877;51.504;3.894;2023-03-03T03:40:41;102592.94;;;5.93;66.97
66398;BME280;54877;51.504;3.894;2023-03-03T03:43:07;102589.44;;;5.78;67.40
66398;BME280;54877;51.504;3.894;2023-03-03T03:45:32;102589.41;;;5.84;67.33
66398;BME280;54877;51.504;3.894;2023-03-03T03:47:58;102592.91;;;5.74;67.17
66398;BME280;54877;51.504;3.894;2023-03-03T03:50:23;102591.19;;;5.79;67.07
66398;BME280;54877;51.504;3.894;2023-03-03T03:52:49;102593.81;;;5.85;66.57
66398;BME280;54877;51.504;3.894;2023-03-03T03:55:14;102587.66;;;5.80;66.99
66398;BME280;54877;51.504;3.894;2023-03-03T03:57:40;102581.53;;;5.81;66.77
66398;BME280;54877;51.504;3.894;2023-03-03T04:00:06;102591.19;;;5.79;66.75
66398;BME280;54877;51.504;3.894;2023-03-03T04:02:33;102583.31;;;5.70;66.91
66398;BME280;54877;51.504;3.894;2023-03-03T04:04:59;102592.94;;;5.61;67.42
66398;BME280;54877;51.504;3.894;2023-03-03T04:07:24;102594.72;;;5.63;67.39
66398;BME280;54877;51.504;3.894;2023-03-03T04:09:50;102591.19;;;5.64;67.44
66398;BME280;54877;51.504;3.894;2023-03-03T04:12:15;102589.47;;;5.57;67.67
66398;BME280;54877;51.504;3.894;2023-03-03T04:14:41;102590.34;;;5.65;67.42
66398;BME280;54877;51.504;3.894;2023-03-03T04:17:06;102592.97;;;5.68;67.49
66398;BME280;54877;51.504;3.894;2023-03-03T04:19:31;102587.72;;;5.62;67.58
66398;BME280;54877;51.504;3.894;2023-03-03T04:21:57;102588.56;;;5.67;67.53
66398;BME280;54877;51.504;3.894;2023-03-03T04:24:22;102597.31;;;5.66;67.33
66398;BME280;54877;51.504;3.894;2023-03-03T04:26:47;102592.94;;;5.70;67.53
66398;BME280;54877;51.504;3.894;2023-03-03T04:29:13;102593.84;;;5.69;67.60
66398;BME280;54877;51.504;3.894;2023-03-03T04:31:38;102589.47;;;5.57;68.14
66398;BME280;54877;51.504;3.894;2023-03-03T04:34:03;102598.22;;;5.65;67.78
66398;BME280;54877;51.504;3.894;2023-03-03T04:36:29;102597.34;;;5.62;67.92
66398;BME280;54877;51.504;3.894;2023-03-03T04:38:54;102603.47;;;5.59;67.98
66398;BME280;54877;51.504;3.894;2023-03-03T04:41:19;102596.47;;;5.61;68.32
66398;BME280;54877;51.504;3.894;2023-03-03T04:43:45;102598.22;;;5.65;67.83
66398;BME280;54877;51.504;3.894;2023-03-03T04:46:10;102596.47;;;5.58;68.40
66398;BME280;54877;51.504;3.894;2023-03-03T04:48:36;102598.22;;;5.62;68.50
66398;BME280;54877;51.504;3.894;2023-03-03T04:51:02;102597.34;;;5.57;68.82
66398;BME280;54877;51.504;3.894;2023-03-03T04:53:28;102599.97;;;5.60;68.58
66398;BME280;54877;51.504;3.894;2023-03-03T04:55:53;102606.09;;;5.53;69.05
66398;BME280;54877;51.504;3.894;2023-03-03T04:58:18;102599.09;;;5.55;68.89
66398;BME280;54877;51.504;3.894;2023-03-03T05:00:45;102594.72;;;5.60;68.62
66398;BME280;54877;51.504;3.894;2023-03-03T05:03:11;102604.34;;;5.63;68.81
66398;BME280;54877;51.504;3.894;2023-03-03T05:05:37;102606.09;;;5.65;68.77
66398;BME280;54877;51.504;3.894;2023-03-03T05:08:02;102616.59;;;5.64;68.92
66398;BME280;54877;51.504;3.894;2023-03-03T05:10:28;102611.34;;;5.61;69.02
66398;BME280;54877;51.504;3.894;2023-03-03T05:12:53;102616.63;;;5.41;69.52
66398;BME280;54877;51.504;3.894;2023-03-03T05:15:19;102609.59;;;5.55;69.12
66398;BME280;54877;51.504;3.894;2023-03-03T05:17:44;102619.22;;;5.50;69.53
66398;BME280;54877;51.504;3.894;2023-03-03T05:20:10;102613.13;;;5.47;69.70
66398;BME280;54877;51.504;3.894;2023-03-03T05:22:37;102622.75;;;5.52;69.33
66398;BME280;54877;51.504;3.894;2023-03-03T05:25:02;102624.50;;;5.49;69.52
66398;BME280;54877;51.504;3.894;2023-03-03T05:27:28;102622.75;;;5.52;69.22
66398;BME280;54877;51.504;3.894;2023-03-03T05:29:53;102620.13;;;5.57;69.45
66398;BME280;54877;51.504;3.894;2023-03-03T05:32:18;102621.00;;;5.60;69.19
66398;BME280;54877;51.504;3.894;2023-03-03T05:34:44;102628.00;;;5.60;69.14
66398;BME280;54877;51.504;3.894;2023-03-03T05:37:09;102632.38;;;5.59;69.11
66398;BME280;54877;51.504;3.894;2023-03-03T05:39:35;102628.00;;;5.52;69.23
66398;BME280;54877;51.504;3.894;2023-03-03T05:42:00;102631.50;;;5.62;69.06
66398;BME280;54877;51.504;3.894;2023-03-03T05:44:26;102626.22;;;5.66;68.75
66398;BME280;54877;51.504;3.894;2023-03-03T05:46:52;102634.13;;;5.53;69.00
66398;BME280;54877;51.504;3.894;2023-03-03T05:49:17;102627.13;;;5.59;68.50
66398;BME280;54877;51.504;3.894;2023-03-03T05:51:43;102635.00;;;5.65;68.38
66398;BME280;54877;51.504;3.894;2023-03-03T05:54:08;102647.25;;;5.69;67.80
66398;BME280;54877;51.504;3.894;2023-03-03T05:56:34;102641.13;;;5.67;67.40
66398;BME280;54877;51.504;3.894;2023-03-03T05:58:59;102640.25;;;5.62;67.40
66398;BME280;54877;51.504;3.894;2023-03-03T06:01:25;102648.13;;;5.56;67.26
66398;BME280;54877;51.504;3.894;2023-03-03T06:03:51;102643.78;;;5.52;67.67
66398;BME280;54877;51.504;3.894;2023-03-03T06:06:17;102654.28;;;5.40;67.70
66398;BME280;54877;51.504;3.894;2023-03-03T06:08:43;102647.25;;;5.39;67.64
66398;BME280;54877;51.504;3.894;2023-03-03T06:11:09;102650.75;;;5.32;67.68
66398;BME280;54877;51.504;3.894;2023-03-03T06:13:34;102659.50;;;5.34;67.64
66398;BME280;54877;51.504;3.894;2023-03-03T06:16:00;102650.75;;;5.32;67.90
66398;BME280;54877;51.504;3.894;2023-03-03T06:18:25;102652.50;;;5.24;68.12
66398;BME280;54877;51.504;3.894;2023-03-03T06:20:51;102660.38;;;5.21;67.82
66398;BME280;54877;51.504;3.894;2023-03-03T06:23:18;102661.25;;;5.17;67.96
66398;BME280;54877;51.504;3.894;2023-03-03T06:25:43;102666.47;;;5.14;68.32
66398;BME280;54877;51.504;3.894;2023-03-03T06:28:08;102671.72;;;5.14;68.03
66398;BME280;54877;51.504;3.894;2023-03-03T06:30:34;102665.63;;;5.16;68.40
66398;BME280;54877;51.504;3.894;2023-03-03T06:32:59;102667.34;;;5.11;68.32
66398;BME280;54877;51.504;3.894;2023-03-03T06:35:24;102679.63;;;5.20;68.31
66398;BME280;54877;51.504;3.894;2023-03-03T06:37:50;102674.41;;;5.24;68.50
66398;BME280;54877;51.504;3.894;2023-03-03T06:40:16;102677.00;;;5.26;68.20
66398;BME280;54877;51.504;3.894;2023-03-03T06:42:41;102681.41;;;5.31;68.30
66398;BME280;54877;51.504;3.894;2023-03-03T06:45:07;102684.88;;;5.30;68.52
66398;BME280;54877;51.504;3.894;2023-03-03T06:47:32;102692.78;;;5.32;68.33
66398;BME280;54877;51.504;3.894;2023-03-03T06:49:58;102693.69;;;5.43;68.19
66398;BME280;54877;51.504;3.894;2023-03-03T06:52:24;102685.78;;;5.40;68.59
66398;BME280;54877;51.504;3.894;2023-03-03T06:54:58;102690.16;;;5.46;68.45
66398;BME280;54877;51.504;3.894;2023-03-03T06:57:27;102697.19;;;5.54;68.26
66398;BME280;54877;51.504;3.894;2023-03-03T06:59:57;102701.56;;;5.52;68.47
66398;BME280;54877;51.504;3.894;2023-03-03T07:02:27;102705.06;;;5.51;68.69
66398;BME280;54877;51.504;3.894;2023-03-03T07:04:52;102708.53;;;5.47;68.71
66398;BME280;54877;51.504;3.894;2023-03-03T07:07:24;102713.81;;;5.59;68.60
66398;BME280;54877;51.504;3.894;2023-03-03T07:09:54;102718.19;;;5.62;68.66
66398;BME280;54877;51.504;3.894;2023-03-03T07:12:22;102715.56;;;5.66;68.46
66398;BME280;54877;51.504;3.894;2023-03-03T07:14:52;102715.56;;;5.54;69.10
66398;BME280;54877;51.504;3.894;2023-03-03T07:17:23;102719.06;;;5.50;69.48
66398;BME280;54877;51.504;3.894;2023-03-03T07:19:49;102722.56;;;5.46;69.84
66398;BME280;54877;51.504;3.894;2023-03-03T07:22:19;102713.81;;;5.53;69.78
66398;BME280;54877;51.504;3.894;2023-03-03T07:24:46;102718.19;;;5.47;69.83
66398;BME280;54877;51.504;3.894;2023-03-03T07:27:24;102735.69;;;5.58;69.47
66398;BME280;54877;51.504;3.894;2023-03-03T07:29:52;102732.22;;;5.62;69.61
66398;BME280;54877;51.504;3.894;2023-03-03T07:32:27;102726.94;;;5.38;70.20
66398;BME280;54877;51.504;3.894;2023-03-03T07:35:03;102733.94;;;5.38;70.83
66398;BME280;54877;51.504;3.894;2023-03-03T07:37:49;102729.56;;;5.44;70.47
66398;BME280;54877;51.504;3.894;2023-03-03T07:42:58;102733.09;;;5.46;70.75
66398;BME280;54877;51.504;3.894;2023-03-03T07:45:32;102733.09;;;5.57;70.44
66398;BME280;54877;51.504;3.894;2023-03-03T07:50:49;102738.34;;;5.61;70.00
66398;BME280;54877;51.504;3.894;2023-03-03T07:53:26;102734.81;;;5.53;70.64
66398;BME280;54877;51.504;3.894;2023-03-03T07:55:58;102751.47;;;5.49;70.84
66398;BME280;54877;51.504;3.894;2023-03-03T07:58:30;102744.47;;;5.59;70.42
66398;BME280;54877;51.504;3.894;2023-03-03T08:04:07;102744.47;;;5.68;70.22
66398;BME280;54877;51.504;3.894;2023-03-03T08:06:44;102753.22;;;5.64;70.40
66398;BME280;54877;51.504;3.894;2023-03-03T08:09:26;102745.38;;;5.71;70.19
66398;BME280;54877;51.504;3.894;2023-03-03T08:14:35;102750.63;;;5.65;70.30
66398;BME280;54877;51.504;3.894;2023-03-03T08:23:07;102762.88;;;5.69;69.89
66398;BME280;54877;51.504;3.894;2023-03-03T08:25:32;102773.38;;;5.69;70.08
66398;BME280;54877;51.504;3.894;2023-03-03T08:27:57;102776.88;;;5.59;70.22
66398;BME280;54877;51.504;3.894;2023-03-03T08:30:23;102766.38;;;5.62;69.86
66398;BME280;54877;51.504;3.894;2023-03-03T08:32:48;102770.75;;;5.72;69.74
66398;BME280;54877;51.504;3.894;2023-03-03T08:35:13;102774.25;;;5.70;70.10
66398;BME280;54877;51.504;3.894;2023-03-03T08:37:38;102776.03;;;5.74;69.65
66398;BME280;54877;51.504;3.894;2023-03-03T08:40:04;102779.53;;;5.79;69.57
66398;BME280;54877;51.504;3.894;2023-03-03T08:42:30;102779.56;;;5.86;69.57
66398;BME280;54877;51.504;3.894;2023-03-03T08:44:55;102775.19;;;5.98;69.83
66398;BME280;54877;51.504;3.894;2023-03-03T08:47:20;102783.03;;;5.84;69.61
66398;BME280;54877;51.504;3.894;2023-03-03T08:49:46;102778.69;;;6.00;69.34
66398;BME280;54877;51.504;3.894;2023-03-03T08:52:11;102787.47;;;6.03;69.41
66398;BME280;54877;51.504;3.894;2023-03-03T08:54:36;102783.94;;;6.09;68.98
66398;BME280;54877;51.504;3.894;2023-03-03T08:57:02;102791.81;;;6.13;68.97
66398;BME280;54877;51.504;3.894;2023-03-03T08:59:27;102790.94;;;6.25;68.76
66398;BME280;54877;51.504;3.894;2023-03-03T09:01:53;102790.09;;;6.35;68.70
66398;BME280;54877;51.504;3.894;2023-03-03T09:04:19;102784.78;;;6.47;68.18
66398;BME280;54877;51.504;3.894;2023-03-03T09:06:44;102797.97;;;6.32;68.40
66398;BME280;54877;51.504;3.894;2023-03-03T09:09:09;102795.31;;;6.47;68.13
66398;BME280;54877;51.504;3.894;2023-03-03T09:11:35;102795.31;;;6.47;67.92
66398;BME280;54877;51.504;3.894;2023-03-03T09:14:03;102794.44;;;6.51;68.21
66398;BME280;54877;51.504;3.894;2023-03-03T09:16:41;102806.69;;;6.52;67.72
66398;BME280;54877;51.504;3.894;2023-03-03T09:19:25;102804.97;;;6.45;67.69
66398;BME280;54877;51.504;3.894;2023-03-03T09:21:54;102801.47;;;6.37;67.87
66398;BME280;54877;51.504;3.894;2023-03-03T09:24:25;102810.22;;;6.45;68.04
66398;BME280;54877;51.504;3.894;2023-03-03T09:26:53;102803.19;;;6.41;67.92
66398;BME280;54877;51.504;3.894;2023-03-03T09:32:01;102818.97;;;6.50;67.77
66398;BME280;54877;51.504;3.894;2023-03-03T09:34:45;102812.00;;;6.46;67.71
66398;BME280;54877;51.504;3.894;2023-03-03T09:39:50;102806.69;;;6.55;67.21
66398;BME280;54877;51.504;3.894;2023-03-03T09:42:27;102810.22;;;6.51;67.64
66398;BME280;54877;51.504;3.894;2023-03-03T09:45:03;102813.72;;;6.53;67.05
66398;BME280;54877;51.504;3.894;2023-03-03T10:01:24;102825.09;;;6.70;66.94
66398;BME280;54877;51.504;3.894;2023-03-03T10:04:19;102826.84;;;6.67;66.59
66398;BME280;54877;51.504;3.894;2023-03-03T10:12:28;102825.06;;;6.81;66.47
66398;BME280;54877;51.504;3.894;2023-03-03T10:17:48;102822.31;;;7.11;65.58
66398;BME280;54877;51.504;3.894;2023-03-03T10:23:14;102824.97;;;7.14;65.21
66398;BME280;54877;51.504;3.894;2023-03-03T10:31:20;102833.66;;;7.37;64.67
66398;BME280;54877;51.504;3.894;2023-03-03T10:39:57;102827.50;;;7.37;64.42
66398;BME280;54877;51.504;3.894;2023-03-03T10:42:51;102830.84;;;7.66;63.81
66398;BME280;54877;51.504;3.894;2023-03-03T10:53:41;102820.03;;;8.02;62.78
66398;BME280;54877;51.504;3.894;2023-03-03T10:59:40;102822.47;;;8.26;62.05
66398;BME280;54877;51.504;3.894;2023-03-03T11:16:24;102825.25;;;8.10;61.39
66398;BME280;54877;51.504;3.894;2023-03-03T11:19:20;102817.34;;;8.10;61.41
66398;BME280;54877;51.504;3.894;2023-03-03T11:25:02;102815.47;;;8.21;61.80
66398;BME280;54877;51.504;3.894;2023-03-03T11:30:17;102804.78;;;8.41;61.08
66398;BME280;54877;51.504;3.894;2023-03-03T11:32:53;102796.59;;;8.68;60.41
66398;BME280;54877;51.504;3.894;2023-03-03T11:35:25;102802.59;;;8.83;59.59
66398;BME280;54877;51.504;3.894;2023-03-03T11:38:01;102799.09;;;8.78;59.69
66398;BME280;54877;51.504;3.894;2023-03-03T11:40:48;102784.69;;;9.08;58.98
66398;BME280;54877;51.504;3.894;2023-03-03T11:43:20;102793.41;;;9.13;58.03
66398;BME280;54877;51.504;3.894;2023-03-03T11:45:56;102789.22;;;8.97;58.11
66398;BME280;54877;51.504;3.894;2023-03-03T11:51:19;102786.44;;;9.08;57.99
66398;BME280;54877;51.504;3.894;2023-03-03T12:04:43;102780.78;;;9.35;57.07
66398;BME280;54877;51.504;3.894;2023-03-03T12:12:15;102775.97;;;9.63;57.04
66398;BME280;54877;51.504;3.894;2023-03-03T12:20:42;102772.16;;;9.80;56.49
66398;BME280;54877;51.504;3.894;2023-03-03T12:26:19;102766.34;;;10.12;56.22
66398;BME280;54877;51.504;3.894;2023-03-03T12:29:05;102764.63;;;10.13;55.87
66398;BME280;54877;51.504;3.894;2023-03-03T12:31:39;102764.63;;;10.13;55.66
66398;BME280;54877;51.504;3.894;2023-03-03T12:40:09;102761.47;;;10.40;55.21
66398;BME280;54877;51.504;3.894;2023-03-03T12:47:59;102757.38;;;10.22;55.02
66398;BME280;54877;51.504;3.894;2023-03-03T12:50:35;102759.03;;;10.29;54.95
66398;BME280;54877;51.504;3.894;2023-03-03T12:53:08;102756.75;;;10.55;54.91
66398;BME280;54877;51.504;3.894;2023-03-03T12:55:52;102767.34;;;10.55;54.18
66398;BME280;54877;51.504;3.894;2023-03-03T12:58:33;102751.44;;;10.55;54.50
66398;BME280;54877;51.504;3.894;2023-03-03T13:03:44;102743.88;;;10.82;53.90
66398;BME280;54877;51.504;3.894;2023-03-03T13:06:26;102744.53;;;10.93;53.62
66398;BME280;54877;51.504;3.894;2023-03-03T13:12:02;102755.59;;;10.70;53.58
66398;BME280;54877;51.504;3.894;2023-03-03T13:17:27;102743.19;;;10.72;54.12
66398;BME280;54877;51.504;3.894;2023-03-03T13:19:59;102748.25;;;10.83;53.51
66398;BME280;54877;51.504;3.894;2023-03-03T13:23:12;102742.88;;;10.87;53.41
66398;BME280;54877;51.504;3.894;2023-03-03T13:28:06;102746.41;;;10.88;53.68
66398;BME280;54877;51.504;3.894;2023-03-03T13:30:42;102750.72;;;10.92;53.02
66398;BME280;54877;51.504;3.894;2023-03-03T13:33:17;102741.94;;;10.90;52.77
66398;BME280;54877;51.504;3.894;2023-03-03T13:38:29;102744.88;;;10.75;52.92
66398;BME280;54877;51.504;3.894;2023-03-03T13:41:16;102739.31;;;10.88;53.04
66398;BME280;54877;51.504;3.894;2023-03-03T13:46:39;102734.69;;;10.98;52.67
66398;BME280;54877;51.504;3.894;2023-03-03T14:02:39;102728.91;;;11.19;51.79
66398;BME280;54877;51.504;3.894;2023-03-03T14:05:14;102730.69;;;11.20;51.56
66398;BME280;54877;51.504;3.894;2023-03-03T14:13:28;102722.84;;;11.52;50.74
66398;BME280;54877;51.504;3.894;2023-03-03T14:21:58;102720.75;;;11.66;50.19
66398;BME280;54877;51.504;3.894;2023-03-03T14:24:21;102724.75;;;11.47;49.93
66398;BME280;54877;51.504;3.894;2023-03-03T14:26:51;102721.19;;;11.48;50.28
66398;BME280;54877;51.504;3.894;2023-03-03T14:31:53;102725.00;;;11.35;50.33
66398;BME280;54877;51.504;3.894;2023-03-03T14:36:48;102714.47;;;11.34;50.78
66398;BME280;54877;51.504;3.894;2023-03-03T14:39:34;102722.34;;;11.37;51.17
66398;BME280;54877;51.504;3.894;2023-03-03T14:42:09;102710.22;;;11.25;51.14
66398;BME280;54877;51.504;3.894;2023-03-03T14:49:35;102712.94;;;11.22;51.09
66398;BME280;54877;51.504;3.894;2023-03-03T14:52:08;102709.41;;;11.23;51.21
66398;BME280;54877;51.504;3.894;2023-03-03T14:54:44;102711.09;;;11.26;51.10
66398;BME280;54877;51.504;3.894;2023-03-03T14:59:39;102712.00;;;11.25;51.17
66398;BME280;54877;51.504;3.894;2023-03-03T15:04:44;102702.84;;;11.01;50.75
66398;BME280;54877;51.504;3.894;2023-03-03T15:09:49;102703.59;;;11.06;52.04
66398;BME280;54877;51.504;3.894;2023-03-03T15:12:19;102704.44;;;11.08;52.90
66398;BME280;54877;51.504;3.894;2023-03-03T15:14:47;102698.16;;;11.12;53.18
66398;BME280;54877;51.504;3.894;2023-03-03T15:25:31;102698.91;;;10.77;53.86
66398;BME280;54877;51.504;3.894;2023-03-03T15:30:56;102694.63;;;10.72;54.09
66398;BME280;54877;51.504;3.894;2023-03-03T16:23:26;102691.34;;;10.15;52.32
66398;BME280;54877;51.504;3.894;2023-03-03T16:33:36;102694.75;;;10.21;51.72
66398;BME280;54877;51.504;3.894;2023-03-03T16:41:54;102708.94;;;10.17;51.81
66398;BME280;54877;51.504;3.894;2023-03-03T16:44:38;102708.97;;;10.16;51.35
66398;BME280;54877;51.504;3.894;2023-03-03T16:53:24;102709.22;;;10.00;51.54
66398;BME280;54877;51.504;3.894;2023-03-03T17:01:06;102721.31;;;9.62;52.73
66398;BME280;54877;51.504;3.894;2023-03-03T17:03:43;102725.66;;;9.67;52.38
66398;BME280;54877;51.504;3.894;2023-03-03T17:06:29;102725.66;;;9.67;52.38
66398;BME280;54877;51.504;3.894;2023-03-03T17:14:45;102740.63;;;9.67;52.06
66398;BME280;54877;51.504;3.894;2023-03-03T17:20:29;102745.84;;;9.73;52.14
66398;BME280;54877;51.504;3.894;2023-03-03T17:42:37;102766.50;;;9.48;51.21
66398;BME280;54877;51.504;3.894;2023-03-03T17:45:12;102765.00;;;9.30;50.72
66398;BME280;54877;51.504;3.894;2023-03-03T17:47:46;102761.41;;;9.36;50.51
66398;BME280;54877;51.504;3.894;2023-03-03T18:26:27;102784.66;;;9.11;52.18
66398;BME280;54877;51.504;3.894;2023-03-03T18:44:41;102793.41;;;9.12;51.41
66398;BME280;54877;51.504;3.894;2023-03-03T18:47:07;102785.53;;;9.10;51.90
66398;BME280;54877;51.504;3.894;2023-03-03T18:52:21;102787.09;;;9.23;51.63
66398;BME280;54877;51.504;3.894;2023-03-03T18:57:25;102787.00;;;9.31;51.60
66398;BME280;54877;51.504;3.894;2023-03-03T19:00:26;102785.16;;;9.37;51.33
66398;BME280;54877;51.504;3.894;2023-03-03T19:02:53;102788.75;;;9.32;51.48
66398;BME280;54877;51.504;3.894;2023-03-03T19:05:22;102779.06;;;9.32;51.76
66398;BME280;54877;51.504;3.894;2023-03-03T19:13:52;102793.25;;;9.25;52.09
66398;BME280;54877;51.504;3.894;2023-03-03T19:18:34;102794.91;;;9.32;52.35
66398;BME280;54877;51.504;3.894;2023-03-03T19:21:21;102794.97;;;9.28;52.32
66398;BME280;54877;51.504;3.894;2023-03-03T19:24:01;102795.03;;;9.25;52.76
66398;BME280;54877;51.504;3.894;2023-03-03T19:31:51;102789.56;;;9.38;52.54
66398;BME280;54877;51.504;3.894;2023-03-03T19:37:08;102795.88;;;9.25;53.09
66398;BME280;54877;51.504;3.894;2023-03-03T19:40:03;102794.13;;;9.27;52.98
66398;BME280;54877;51.504;3.894;2023-03-03T19:50:44;102807.25;;;9.32;53.48
66398;BME280;54877;51.504;3.894;2023-03-03T19:58:32;102813.50;;;9.26;52.48
66398;BME280;54877;51.504;3.894;2023-03-03T20:01:06;102813.53;;;9.23;52.63
66398;BME280;54877;51.504;3.894;2023-03-03T20:15:13;102813.59;;;9.19;53.19